createdAt,value
2023-05-14T00:00:13.870Z,4.80
2023-05-14T00:03:41.837Z,4.62
2023-05-14T00:07:07.468Z,4.20
2023-05-14T00:10:32.632Z,4.50
2023-05-14T00:13:57.527Z,4.30
2023-05-14T00:17:25.567Z,4.60
2023-05-14T00:20:55.586Z,5.15
2023-05-14T00:24:21.204Z,4.65
2023-05-14T00:27:45.845Z,4.50
2023-05-14T00:31:10.120Z,4.77
2023-05-14T00:34:36.172Z,4.62
2023-05-14T00:38:01.324Z,4.75
2023-05-14T00:41:26.039Z,4.45
2023-05-14T00:44:51.858Z,4.93
2023-05-14T00:48:16.862Z,4.80
2023-05-14T00:51:47.613Z,4.55
2023-05-14T00:55:16.920Z,5.07
2023-05-14T00:58:43.966Z,4.75
2023-05-14T01:02:09.864Z,4.80
2023-05-14T01:05:40.243Z,4.57
2023-05-14T01:09:08.861Z,4.90
2023-05-14T01:12:37.164Z,4.80
2023-05-14T01:16:03.026Z,4.55
2023-05-14T01:19:32.914Z,4.62
2023-05-14T01:23:00.624Z,5.10
2023-05-14T01:26:27.540Z,4.70
2023-05-14T01:29:56.565Z,4.97
2023-05-14T01:33:23.089Z,4.40
2023-05-14T01:36:49.219Z,4.80
2023-05-14T01:40:20.332Z,4.80
2023-05-14T01:43:46.320Z,4.65
2023-05-14T01:47:12.483Z,4.43
2023-05-14T01:50:37.387Z,4.53
2023-05-14T01:54:04.413Z,3.85
2023-05-14T01:57:32.314Z,3.80
2023-05-14T02:00:58.733Z,4.28
2023-05-14T02:04:25.109Z,4.22
2023-05-14T02:07:50.689Z,3.70
2023-05-14T02:11:16.784Z,3.80
2023-05-14T02:14:44.687Z,4.23
2023-05-14T02:18:09.779Z,4.07
2023-05-14T02:21:35.105Z,4.10
2023-05-14T02:25:00.628Z,4.50
2023-05-14T02:28:26.548Z,3.80
2023-05-14T02:31:54.578Z,4.30
2023-05-14T02:35:20.879Z,3.87
2023-05-14T02:38:46.834Z,4.25
2023-05-14T02:42:13.271Z,4.05
2023-05-14T02:45:38.398Z,4.35
2023-05-14T02:49:05.712Z,3.50
2023-05-14T02:52:31.221Z,4.10
2023-05-14T02:55:57.327Z,4.30
2023-05-14T02:59:22.875Z,4.72
2023-05-14T03:02:49.718Z,4.12
2023-05-14T03:06:17.613Z,4.10
2023-05-14T03:09:43.528Z,3.83
2023-05-14T03:13:09.034Z,3.90
2023-05-14T03:16:35.623Z,4.35
2023-05-14T03:20:02.243Z,4.47
2023-05-14T03:23:30.463Z,4.33
2023-05-14T03:26:55.727Z,4.00
2023-05-14T03:30:23.085Z,4.43
2023-05-14T03:33:49.427Z,3.92
2023-05-14T03:37:16.899Z,3.67
2023-05-14T03:40:43.801Z,4.17
2023-05-14T03:44:09.874Z,3.40
2023-05-14T03:47:34.646Z,4.22
2023-05-14T03:50:59.991Z,3.87
2023-05-14T03:54:25.864Z,3.95
2023-05-14T03:57:53.877Z,3.90
2023-05-14T04:01:19.328Z,3.80
2023-05-14T04:04:46.030Z,4.25
2023-05-14T04:08:11.268Z,3.50
2023-05-14T04:11:37.545Z,3.72
2023-05-14T04:15:04.866Z,4.07
2023-05-14T04:18:31.809Z,3.72
2023-05-14T04:21:58.130Z,4.20
2023-05-14T04:25:25.013Z,3.87
2023-05-14T04:28:50.578Z,3.95
2023-05-14T04:32:18.515Z,3.83
2023-05-14T04:35:46.265Z,4.15
2023-05-14T04:39:14.683Z,4.20
2023-05-14T04:42:41.729Z,3.60
2023-05-14T04:46:08.457Z,4.60
2023-05-14T04:49:35.408Z,4.00
2023-05-14T04:53:01.015Z,3.40
2023-05-14T04:56:26.148Z,4.25
2023-05-14T04:59:52.690Z,3.33
2023-05-14T05:03:18.637Z,4.07
2023-05-14T05:06:45.536Z,3.67
2023-05-14T05:10:10.990Z,4.22
2023-05-14T05:13:35.583Z,4.32
2023-05-14T05:16:59.977Z,4.07
2023-05-14T05:20:26.007Z,4.07
2023-05-14T05:23:53.643Z,4.23
2023-05-14T05:27:21.650Z,3.55
2023-05-14T05:30:46.759Z,3.78
2023-05-14T05:34:11.324Z,3.65
2023-05-14T05:37:35.209Z,3.78
2023-05-14T05:41:01.786Z,3.83
2023-05-14T05:44:27.902Z,4.22
2023-05-14T05:47:55.326Z,4.03
2023-05-14T05:51:21.970Z,3.60
2023-05-14T05:54:47.369Z,4.18
2023-05-14T05:58:16.264Z,3.83
2023-05-14T06:01:43.934Z,4.20
2023-05-14T06:05:09.697Z,4.22
2023-05-14T06:08:34.311Z,4.53
2023-05-14T06:11:58.847Z,4.20
2023-05-14T06:15:26.889Z,3.87
2023-05-14T06:18:52.997Z,4.32
2023-05-14T06:22:18.011Z,4.05
2023-05-14T06:25:43.465Z,3.35
2023-05-14T06:29:07.391Z,4.10
2023-05-14T06:32:33.200Z,3.83
2023-05-14T06:35:57.450Z,3.58
2023-05-14T06:39:21.827Z,3.92
2023-05-14T06:42:46.022Z,4.00
2023-05-14T06:46:11.123Z,4.00
2023-05-14T06:49:39.066Z,4.10
2023-05-14T06:53:06.730Z,4.43
2023-05-14T06:56:32.704Z,4.22
2023-05-14T06:59:58.749Z,4.32
2023-05-14T07:03:23.693Z,4.30
2023-05-14T07:06:51.004Z,4.60
2023-05-14T07:10:17.745Z,3.90
2023-05-14T07:13:43.975Z,4.60
2023-05-14T07:17:10.677Z,4.20
2023-05-14T07:20:40.849Z,4.00
2023-05-14T07:24:09.783Z,4.07
2023-05-14T07:27:35.380Z,4.12
2023-05-14T07:31:00.208Z,4.22
2023-05-14T07:34:25.775Z,4.40
2023-05-14T07:37:50.296Z,4.27
2023-05-14T07:41:16.732Z,4.57
2023-05-14T07:44:41.712Z,4.47
2023-05-14T07:48:07.561Z,4.87
2023-05-14T07:51:35.534Z,4.95
2023-05-14T07:55:02.177Z,4.80
2023-05-14T07:58:33.228Z,4.93
2023-05-14T08:02:00.645Z,4.22
2023-05-14T08:05:26.110Z,5.60
2023-05-14T08:08:51.423Z,5.07
2023-05-14T08:12:18.989Z,5.10
2023-05-14T08:15:47.132Z,5.25
2023-05-14T08:19:14.987Z,5.00
2023-05-14T08:22:44.714Z,4.85
2023-05-14T08:26:13.795Z,4.78
2023-05-14T08:29:39.507Z,5.10
2023-05-14T08:33:08.318Z,5.10
2023-05-14T08:36:33.292Z,5.18
2023-05-14T08:39:58.387Z,5.00
2023-05-14T08:43:24.126Z,5.18
2023-05-14T08:46:49.423Z,5.20
2023-05-14T08:50:16.481Z,5.32
2023-05-14T08:53:45.180Z,5.10
2023-05-14T08:57:12.934Z,5.82
2023-05-14T09:00:40.104Z,4.72
2023-05-14T09:04:09.235Z,5.30
2023-05-14T09:07:36.247Z,5.05
2023-05-14T09:11:01.533Z,5.05
2023-05-14T09:14:26.898Z,5.18
2023-05-14T09:17:52.538Z,5.28
2023-05-14T09:21:18.442Z,5.30
2023-05-14T09:24:46.803Z,5.53
2023-05-14T09:28:14.333Z,5.18
2023-05-14T09:31:39.914Z,5.10
2023-05-14T09:35:13.932Z,5.87
2023-05-14T09:38:39.449Z,5.37
2023-05-14T09:42:06.792Z,5.22
2023-05-14T09:45:32.387Z,5.05
2023-05-14T09:48:59.080Z,5.00
2023-05-14T09:52:24.561Z,6.05
2023-05-14T09:55:51.747Z,6.37
2023-05-14T09:59:19.219Z,5.47
2023-05-14T10:02:44.980Z,5.12
2023-05-14T10:06:11.881Z,4.97
2023-05-14T10:09:38.330Z,4.78
2023-05-14T10:13:06.055Z,5.10
2023-05-14T10:16:34.848Z,5.37
2023-05-14T10:20:01.270Z,5.10
2023-05-14T10:23:27.588Z,4.93
2023-05-14T10:26:53.789Z,5.12
2023-05-14T10:30:22.156Z,5.17
2023-05-14T10:33:55.766Z,5.40
2023-05-14T10:37:22.043Z,5.03
2023-05-14T10:40:49.300Z,4.60
2023-05-14T10:44:14.059Z,4.25
2023-05-14T10:47:39.193Z,4.83
2023-05-14T10:51:05.952Z,4.80
2023-05-14T10:54:32.539Z,5.30
2023-05-14T10:57:58.116Z,5.00
2023-05-14T11:01:28.884Z,5.05
2023-05-14T11:05:04.627Z,5.03
2023-05-14T11:08:34.430Z,5.80
2023-05-14T11:12:01.236Z,6.03
2023-05-14T11:15:29.091Z,6.10
2023-05-14T11:18:57.498Z,5.97
2023-05-14T11:22:24.161Z,5.57
2023-05-14T11:25:50.704Z,5.53
2023-05-14T11:29:16.124Z,5.00
2023-05-14T11:32:42.292Z,5.40
2023-05-14T11:36:08.814Z,5.72
2023-05-14T11:39:35.066Z,5.60
2023-05-14T11:43:02.629Z,5.25
2023-05-14T11:46:28.987Z,5.35
2023-05-14T11:49:55.200Z,5.65
2023-05-14T11:53:21.538Z,5.30
2023-05-14T11:56:53.094Z,6.20
2023-05-14T12:00:24.893Z,6.50
2023-05-14T12:03:54.108Z,6.10
2023-05-14T12:07:21.372Z,6.93
2023-05-14T12:10:49.338Z,6.93
2023-05-14T12:14:15.723Z,6.53
2023-05-14T12:17:42.660Z,6.07
2023-05-14T12:21:08.889Z,6.85
2023-05-14T12:24:35.960Z,6.57
2023-05-14T12:28:01.205Z,6.35
2023-05-14T12:31:32.007Z,6.70
2023-05-14T12:34:59.906Z,6.60
2023-05-14T12:38:27.171Z,6.60
2023-05-14T12:41:52.793Z,6.25
2023-05-14T12:45:18.362Z,7.40
2023-05-14T12:48:44.031Z,6.57
2023-05-14T12:55:43.063Z,6.20
2023-05-14T12:59:12.063Z,6.93
2023-05-14T13:02:43.163Z,6.30
2023-05-14T13:06:13.739Z,6.07
2023-05-14T13:09:41.962Z,6.53
2023-05-14T13:13:08.882Z,6.65
2023-05-14T13:16:34.188Z,6.75
2023-05-14T13:20:00.191Z,6.43
2023-05-14T13:23:25.370Z,5.27
2023-05-14T13:26:55.967Z,7.18
2023-05-14T13:30:22.708Z,6.35
2023-05-14T13:33:49.914Z,7.62
2023-05-14T13:37:15.236Z,6.93
2023-05-14T13:40:40.484Z,7.20
2023-05-14T13:44:06.628Z,6.60
2023-05-14T13:47:31.970Z,6.40
2023-05-14T13:50:56.244Z,6.78
2023-05-14T13:54:22.786Z,7.10
2023-05-14T13:57:48.499Z,5.80
2023-05-14T14:01:17.911Z,5.20
2023-05-14T14:04:44.786Z,5.25
2023-05-14T14:08:22.525Z,4.00
2023-05-14T14:11:49.020Z,4.37
2023-05-14T14:15:14.740Z,4.10
2023-05-14T14:18:43.707Z,4.28
2023-05-14T14:22:08.948Z,5.18
2023-05-14T14:25:34.978Z,4.10
2023-05-14T14:29:01.415Z,4.07
2023-05-14T14:32:27.190Z,4.27
2023-05-14T14:35:54.206Z,3.67
2023-05-14T14:39:20.731Z,4.00
2023-05-14T14:42:46.051Z,4.32
2023-05-14T14:46:11.331Z,3.90
2023-05-14T14:49:37.082Z,3.83
2023-05-14T14:53:03.826Z,3.75
2023-05-14T14:56:31.644Z,4.05
2023-05-14T14:59:57.403Z,3.83
2023-05-14T15:03:22.349Z,3.75
2023-05-14T15:06:48.055Z,3.80
2023-05-14T15:10:14.023Z,3.90
2023-05-14T15:13:40.737Z,4.10
2023-05-14T15:17:05.851Z,3.90
2023-05-14T15:20:31.028Z,4.53
2023-05-14T15:23:57.078Z,3.47
2023-05-14T15:27:25.042Z,3.90
2023-05-14T15:30:51.292Z,4.12
2023-05-14T15:34:18.002Z,4.45
2023-05-14T15:37:44.071Z,3.60
2023-05-14T15:41:09.178Z,3.93
2023-05-14T15:44:37.396Z,4.15
2023-05-14T15:48:03.346Z,3.78
2023-05-14T15:51:27.834Z,2.60
2023-05-14T15:54:53.608Z,3.17
2023-05-14T15:58:18.171Z,3.63
2023-05-14T16:01:45.174Z,2.97
2023-05-14T16:05:11.551Z,3.25
2023-05-14T16:08:38.734Z,3.00
2023-05-14T16:12:04.862Z,3.20
2023-05-14T16:15:29.803Z,3.33
2023-05-14T16:18:56.179Z,2.67
2023-05-14T16:22:20.458Z,2.22
2023-05-14T16:25:47.980Z,2.40
2023-05-14T16:29:16.466Z,2.25
2023-05-14T16:32:42.517Z,3.07
2023-05-14T16:36:08.936Z,3.53
2023-05-14T16:39:34.535Z,3.85
2023-05-14T16:42:59.263Z,3.15
2023-05-14T16:46:24.302Z,3.17
2023-05-14T16:49:49.567Z,3.10
2023-05-14T16:53:16.978Z,2.85
2023-05-14T16:56:42.869Z,3.47
2023-05-14T17:00:09.818Z,3.50
2023-05-14T17:03:34.615Z,3.58
2023-05-14T17:06:59.712Z,3.63
2023-05-14T17:10:25.764Z,3.53
2023-05-14T17:13:50.608Z,3.50
2023-05-14T17:17:14.743Z,3.53
2023-05-14T17:20:39.581Z,3.58
2023-05-14T17:24:04.422Z,4.00
2023-05-14T17:27:33.944Z,4.07
2023-05-14T17:30:59.044Z,4.07
2023-05-14T17:34:24.717Z,3.25
2023-05-14T17:37:50.039Z,4.05
2023-05-14T17:41:15.815Z,4.03
2023-05-14T17:44:42.024Z,4.10
2023-05-14T17:48:08.006Z,3.20
2023-05-14T17:51:33.057Z,3.55
2023-05-14T17:54:58.830Z,3.12
2023-05-14T17:58:23.430Z,4.20
2023-05-14T18:01:50.581Z,3.60
2023-05-14T18:05:15.491Z,4.45
2023-05-14T18:08:40.458Z,4.62
2023-05-14T18:12:05.859Z,3.77
2023-05-14T18:15:31.987Z,4.82
2023-05-14T18:18:58.632Z,4.97
2023-05-14T18:22:23.150Z,4.57
2023-05-14T18:25:49.028Z,3.50
2023-05-14T18:29:13.372Z,4.57
2023-05-14T18:32:51.253Z,5.00
2023-05-14T18:36:19.436Z,3.95
2023-05-14T18:39:44.798Z,3.70
2023-05-14T18:43:14.372Z,4.30
2023-05-14T18:46:39.469Z,4.10
2023-05-14T18:50:05.460Z,4.40
2023-05-14T18:53:31.908Z,3.55
2023-05-14T18:56:55.890Z,3.95
2023-05-14T19:00:21.282Z,5.07
2023-05-14T19:03:46.360Z,5.05
2023-05-14T19:07:13.217Z,4.57
2023-05-14T19:14:20.136Z,4.00
2023-05-14T19:17:44.165Z,4.10
2023-05-14T19:21:08.956Z,4.57
2023-05-14T19:24:33.750Z,4.60
2023-05-14T19:28:14.790Z,4.90
2023-05-14T19:31:40.874Z,4.28
2023-05-14T19:35:08.749Z,4.00
2023-05-14T19:38:32.990Z,3.87
2023-05-14T19:41:58.757Z,3.83
2023-05-14T19:45:25.074Z,4.37
2023-05-14T19:48:49.752Z,3.75
2023-05-14T19:52:14.285Z,4.20
2023-05-14T19:55:38.716Z,4.00
2023-05-14T19:59:02.962Z,3.97
2023-05-14T20:02:30.030Z,4.32
2023-05-14T20:05:54.831Z,3.92
2023-05-14T20:09:20.769Z,4.00
2023-05-14T20:12:46.474Z,4.30
2023-05-14T20:16:10.872Z,3.83
2023-05-14T20:19:37.936Z,3.92
2023-05-14T20:23:02.372Z,4.47
2023-05-14T20:26:26.851Z,4.33
2023-05-14T20:29:52.128Z,3.28
2023-05-14T20:33:17.287Z,3.97
2023-05-14T20:36:43.691Z,3.87
2023-05-14T20:40:10.909Z,3.95
2023-05-14T20:43:34.801Z,4.27
2023-05-14T20:46:59.453Z,3.87
2023-05-14T20:50:23.839Z,4.20
2023-05-14T20:53:50.281Z,3.87
2023-05-14T20:57:15.830Z,4.50
2023-05-14T21:00:40.873Z,4.00
2023-05-14T21:04:04.899Z,4.00
2023-05-14T21:07:29.105Z,4.20
2023-05-14T21:10:54.786Z,4.32
2023-05-14T21:14:18.950Z,4.40
2023-05-14T21:17:43.027Z,3.83
2023-05-14T21:21:08.040Z,3.62
2023-05-14T21:24:32.431Z,4.00
2023-05-14T21:27:58.939Z,3.80
2023-05-14T21:31:23.627Z,3.80
2023-05-14T21:34:48.538Z,4.07
2023-05-14T21:38:12.576Z,3.58
2023-05-14T21:41:37.019Z,3.75
2023-05-14T21:45:05.125Z,4.10
2023-05-14T21:48:40.437Z,4.18
2023-05-14T21:52:04.813Z,4.00
2023-05-14T21:55:29.150Z,4.20
2023-05-14T21:58:57.480Z,3.78
2023-05-14T22:02:23.503Z,3.60
2023-05-14T22:05:47.848Z,3.30
2023-05-14T22:09:12.566Z,3.77
2023-05-14T22:12:37.162Z,4.10
2023-05-14T22:16:12.293Z,4.37
2023-05-14T22:19:39.597Z,3.87
2023-05-14T22:23:03.777Z,3.15
2023-05-14T22:26:28.791Z,3.30
2023-05-14T22:29:53.358Z,3.42
2023-05-14T22:33:19.837Z,3.45
2023-05-14T22:36:54.145Z,4.00
2023-05-14T22:40:18.940Z,3.83
2023-05-14T22:43:43.412Z,4.13
2023-05-14T22:47:08.216Z,4.03
2023-05-14T22:50:31.935Z,4.00
2023-05-14T22:53:57.310Z,4.72
2023-05-14T22:57:21.397Z,4.93
2023-05-14T23:00:45.897Z,4.23
2023-05-14T23:04:10.004Z,4.68
2023-05-14T23:07:34.980Z,4.72
2023-05-14T23:11:00.717Z,4.53
2023-05-14T23:14:25.174Z,3.97
2023-05-14T23:17:49.340Z,4.90
2023-05-14T23:21:14.585Z,4.65
2023-05-14T23:24:39.033Z,4.57
2023-05-14T23:28:04.896Z,4.25
2023-05-14T23:31:29.068Z,4.20
2023-05-14T23:34:53.626Z,4.23
2023-05-14T23:38:17.750Z,4.07
2023-05-14T23:41:42.612Z,4.30
2023-05-14T23:45:09.022Z,4.72
2023-05-14T23:48:33.722Z,4.30
2023-05-14T23:51:57.749Z,4.73
2023-05-14T23:55:22.183Z,4.82
2023-05-14T23:58:46.169Z,4.80
